sensor_id;sensor_type;location;lat;lon;timestamp;pressure;altitude;pressure_sealevel;temperature;humidity
73594;BME280;64760;53.404;23.498;2023-05-31T00:01:13;100197.88;;;10.08;73.22
73594;BME280;64760;53.404;23.498;2023-05-31T00:03:40;100206.09;;;10.06;72.76
73594;BME280;64760;53.404;23.498;2023-05-31T00:06:10;100202.34;;;9.93;73.24
73594;BME280;64760;53.404;23.498;2023-05-31T00:08:36;100201.91;;;9.89;73.50
73594;BME280;64760;53.404;23.498;2023-05-31T00:11:02;100199.16;;;9.97;73.28
73594;BME280;64760;53.404;23.498;2023-05-31T00:13:28;100193.22;;;9.87;73.59
73594;BME280;64760;53.404;23.498;2023-05-31T00:15:54;100201.66;;;9.76;74.60
73594;BME280;64760;53.404;23.498;2023-05-31T00:18:21;100199.75;;;9.84;73.84
73594;BME280;64760;53.404;23.498;2023-05-31T00:20:47;100199.69;;;9.93;73.20
73594;BME280;64760;53.404;23.498;2023-05-31T00:23:13;100200.69;;;9.91;73.81
73594;BME280;64760;53.404;23.498;2023-05-31T00:25:39;100196.50;;;9.74;74.29
73594;BME280;64760;53.404;23.498;2023-05-31T00:28:06;100190.75;;;9.63;75.05
73594;BME280;64760;53.404;23.498;2023-05-31T00:30:32;100201.44;;;9.63;75.35
73594;BME280;64760;53.404;23.498;2023-05-31T00:32:58;100200.00;;;9.52;75.23
73594;BME280;64760;53.404;23.498;2023-05-31T00:35:24;100198.53;;;9.27;76.92
73594;BME280;64760;53.404;23.498;2023-05-31T00:37:51;100204.19;;;9.24;77.44
73594;BME280;64760;53.404;23.498;2023-05-31T00:40:17;100196.06;;;9.17;78.22
73594;BME280;64760;53.404;23.498;2023-05-31T00:42:43;100195.22;;;9.17;78.26
73594;BME280;64760;53.404;23.498;2023-05-31T00:45:11;100195.22;;;9.17;78.70
73594;BME280;64760;53.404;23.498;2023-05-31T00:47:38;100202.09;;;9.19;78.42
73594;BME280;64760;53.404;23.498;2023-05-31T00:50:04;100203.00;;;9.04;78.08
73594;BME280;64760;53.404;23.498;2023-05-31T00:52:32;100196.19;;;8.93;79.70
73594;BME280;64760;53.404;23.498;2023-05-31T00:55:00;100205.38;;;8.99;79.75
73594;BME280;64760;53.404;23.498;2023-05-31T00:57:27;100198.78;;;9.09;78.89
73594;BME280;64760;53.404;23.498;2023-05-31T00:59:53;100194.06;;;8.80;80.28
73594;BME280;64760;53.404;23.498;2023-05-31T01:02:21;100188.47;;;8.67;81.17
73594;BME280;64760;53.404;23.498;2023-05-31T01:04:49;100183.47;;;8.56;81.96
73594;BME280;64760;53.404;23.498;2023-05-31T01:07:15;100188.94;;;8.71;82.12
73594;BME280;64760;53.404;23.498;2023-05-31T01:09:41;100201.75;;;8.83;80.77
73594;BME280;64760;53.404;23.498;2023-05-31T01:17:28;100201.16;;;8.65;82.29
73594;BME280;64760;53.404;23.498;2023-05-31T01:20:06;100199.81;;;8.69;81.90
73594;BME280;64760;53.404;23.498;2023-05-31T01:22:52;100198.00;;;8.62;82.09
73594;BME280;64760;53.404;23.498;2023-05-31T01:28:12;100212.06;;;8.56;82.73
73594;BME280;64760;53.404;23.498;2023-05-31T01:30:40;100209.16;;;8.65;81.65
73594;BME280;64760;53.404;23.498;2023-05-31T01:33:09;100207.84;;;8.61;81.81
73594;BME280;64760;53.404;23.498;2023-05-31T01:35:36;100209.84;;;8.67;81.70
73594;BME280;64760;53.404;23.498;2023-05-31T01:38:02;100215.50;;;8.64;81.87
73594;BME280;64760;53.404;23.498;2023-05-31T01:40:28;100210.00;;;8.66;81.43
73594;BME280;64760;53.404;23.498;2023-05-31T01:42:56;100215.03;;;8.61;81.81
73594;BME280;64760;53.404;23.498;2023-05-31T01:45:23;100215.38;;;8.58;81.74
73594;BME280;64760;53.404;23.498;2023-05-31T01:47:55;100212.38;;;8.53;82.31
73594;BME280;64760;53.404;23.498;2023-05-31T01:50:23;100218.06;;;8.49;82.70
73594;BME280;64760;53.404;23.498;2023-05-31T01:52:50;100217.59;;;8.38;83.23
73594;BME280;64760;53.404;23.498;2023-05-31T01:55:17;100213.59;;;8.26;84.20
73594;BME280;64760;53.404;23.498;2023-05-31T01:57:45;100217.47;;;8.31;84.31
73594;BME280;64760;53.404;23.498;2023-05-31T02:00:12;100213.94;;;8.23;83.93
73594;BME280;64760;53.404;23.498;2023-05-31T02:02:44;100223.78;;;8.14;85.07
73594;BME280;64760;53.404;23.498;2023-05-31T02:05:12;100222.97;;;8.06;86.35
73594;BME280;64760;53.404;23.498;2023-05-31T02:07:41;100223.63;;;8.32;85.40
73594;BME280;64760;53.404;23.498;2023-05-31T02:10:08;100227.63;;;8.28;84.96
73594;BME280;64760;53.404;23.498;2023-05-31T02:12:37;100227.28;;;8.39;84.37
73594;BME280;64760;53.404;23.498;2023-05-31T02:15:04;100225.47;;;8.23;84.05
73594;BME280;64760;53.404;23.498;2023-05-31T02:17:38;100235.31;;;7.98;85.37
73594;BME280;64760;53.404;23.498;2023-05-31T02:20:10;100235.31;;;7.98;87.22
73594;BME280;64760;53.404;23.498;2023-05-31T02:22:43;100232.81;;;7.89;87.47
73594;BME280;64760;53.404;23.498;2023-05-31T02:25:11;100237.66;;;7.77;88.16
73594;BME280;64760;53.404;23.498;2023-05-31T02:27:40;100234.63;;;7.80;89.19
73594;BME280;64760;53.404;23.498;2023-05-31T02:30:08;100236.31;;;7.81;89.32
73594;BME280;64760;53.404;23.498;2023-05-31T02:32:36;100240.50;;;8.00;87.82
73594;BME280;64760;53.404;23.498;2023-05-31T02:35:08;100236.31;;;8.14;86.65
73594;BME280;64760;53.404;23.498;2023-05-31T02:37:36;100241.47;;;8.15;86.83
73594;BME280;64760;53.404;23.498;2023-05-31T02:40:03;100235.66;;;8.36;85.59
73594;BME280;64760;53.404;23.498;2023-05-31T02:42:41;100232.91;;;8.52;84.20
73594;BME280;64760;53.404;23.498;2023-05-31T02:45:08;100233.59;;;8.54;84.27
73594;BME280;64760;53.404;23.498;2023-05-31T02:47:37;100236.78;;;8.49;84.41
73594;BME280;64760;53.404;23.498;2023-05-31T02:50:04;100236.94;;;8.48;84.62
73594;BME280;64760;53.404;23.498;2023-05-31T02:52:31;100233.91;;;8.67;84.11
73594;BME280;64760;53.404;23.498;2023-05-31T02:55:15;100246.00;;;8.86;82.62
73594;BME280;64760;53.404;23.498;2023-05-31T02:57:59;100246.06;;;9.09;81.16
73594;BME280;64760;53.404;23.498;2023-05-31T03:00:25;100252.31;;;9.32;79.39
73594;BME280;64760;53.404;23.498;2023-05-31T03:02:52;100261.97;;;9.41;78.67
73594;BME280;64760;53.404;23.498;2023-05-31T03:05:39;100251.00;;;9.59;77.80
73594;BME280;64760;53.404;23.498;2023-05-31T03:08:05;100246.34;;;9.75;76.58
73594;BME280;64760;53.404;23.498;2023-05-31T03:10:31;100256.34;;;9.81;75.76
73594;BME280;64760;53.404;23.498;2023-05-31T03:12:59;100248.88;;;9.91;75.31
73594;BME280;64760;53.404;23.498;2023-05-31T03:15:25;100252.63;;;10.05;74.09
73594;BME280;64760;53.404;23.498;2023-05-31T03:17:52;100255.78;;;10.09;73.65
73594;BME280;64760;53.404;23.498;2023-05-31T03:20:18;100262.28;;;9.91;74.37
73594;BME280;64760;53.404;23.498;2023-05-31T03:22:44;100255.38;;;9.52;76.43
73594;BME280;64760;53.404;23.498;2023-05-31T03:25:11;100264.91;;;9.54;77.55
73594;BME280;64760;53.404;23.498;2023-05-31T03:27:38;100257.81;;;9.84;75.95
73594;BME280;64760;53.404;23.498;2023-05-31T03:30:04;100259.47;;;10.08;74.59
73594;BME280;64760;53.404;23.498;2023-05-31T03:32:36;100249.59;;;10.31;73.36
73594;BME280;64760;53.404;23.498;2023-05-31T03:35:02;100250.78;;;10.43;72.28
73594;BME280;64760;53.404;23.498;2023-05-31T03:37:28;100254.69;;;10.41;72.58
73594;BME280;64760;53.404;23.498;2023-05-31T03:40:05;100260.88;;;10.26;73.17
73594;BME280;64760;53.404;23.498;2023-05-31T03:42:32;100262.56;;;9.97;74.92
73594;BME280;64760;53.404;23.498;2023-05-31T03:44:58;100264.50;;;9.65;77.03
73594;BME280;64760;53.404;23.498;2023-05-31T03:47:24;100268.25;;;9.48;78.02
73594;BME280;64760;53.404;23.498;2023-05-31T03:49:50;100261.31;;;9.39;79.25
73594;BME280;64760;53.404;23.498;2023-05-31T03:52:17;100269.50;;;9.37;79.24
73594;BME280;64760;53.404;23.498;2023-05-31T03:54:43;100258.38;;;9.26;80.16
73594;BME280;64760;53.404;23.498;2023-05-31T03:57:10;100276.09;;;9.27;80.70
73594;BME280;64760;53.404;23.498;2023-05-31T03:59:36;100265.63;;;9.40;79.57
73594;BME280;64760;53.404;23.498;2023-05-31T04:02:03;100272.13;;;9.46;79.88
73594;BME280;64760;53.404;23.498;2023-05-31T04:04:30;100269.59;;;9.52;79.31
73594;BME280;64760;53.404;23.498;2023-05-31T04:06:56;100271.50;;;9.66;79.31
73594;BME280;64760;53.404;23.498;2023-05-31T04:09:22;100271.50;;;9.66;79.33
73594;BME280;64760;53.404;23.498;2023-05-31T04:11:52;100264.44;;;9.73;79.83
73594;BME280;64760;53.404;23.498;2023-05-31T04:14:19;100266.38;;;9.79;78.98
73594;BME280;64760;53.404;23.498;2023-05-31T04:16:47;100263.53;;;9.81;79.76
73594;BME280;64760;53.404;23.498;2023-05-31T04:19:14;100266.06;;;9.82;79.90
73594;BME280;64760;53.404;23.498;2023-05-31T04:21:41;100270.09;;;10.01;78.88
73594;BME280;64760;53.404;23.498;2023-05-31T04:24:07;100259.13;;;10.11;78.47
73594;BME280;64760;53.404;23.498;2023-05-31T04:26:34;100260.66;;;10.28;78.24
73594;BME280;64760;53.404;23.498;2023-05-31T04:29:02;100262.25;;;10.37;77.74
73594;BME280;64760;53.404;23.498;2023-05-31T04:31:31;100259.03;;;10.42;77.42
73594;BME280;64760;53.404;23.498;2023-05-31T04:34:02;100250.16;;;10.56;76.91
73594;BME280;64760;53.404;23.498;2023-05-31T04:36:30;100260.72;;;10.57;77.09
73594;BME280;64760;53.404;23.498;2023-05-31T04:38:58;100260.91;;;10.70;76.69
73594;BME280;64760;53.404;23.498;2023-05-31T04:41:28;100261.38;;;10.74;76.86
73594;BME280;64760;53.404;23.498;2023-05-31T04:43:56;100260.91;;;10.85;76.00
73594;BME280;64760;53.404;23.498;2023-05-31T04:46:24;100256.56;;;10.84;77.11
73594;BME280;64760;53.404;23.498;2023-05-31T04:48:51;100252.22;;;10.98;76.21
73594;BME280;64760;53.404;23.498;2023-05-31T04:51:19;100246.25;;;11.17;75.35
73594;BME280;64760;53.404;23.498;2023-05-31T04:53:45;100253.00;;;11.27;75.32
73594;BME280;64760;53.404;23.498;2023-05-31T04:56:13;100252.88;;;11.50;74.18
73594;BME280;64760;53.404;23.498;2023-05-31T04:58:40;100249.28;;;11.64;73.01
73594;BME280;64760;53.404;23.498;2023-05-31T05:01:07;100242.34;;;11.70;72.48
73594;BME280;64760;53.404;23.498;2023-05-31T05:03:53;100252.25;;;11.69;72.72
73594;BME280;64760;53.404;23.498;2023-05-31T05:06:20;100253.66;;;11.87;71.42
73594;BME280;64760;53.404;23.498;2023-05-31T05:08:47;100253.97;;;11.98;70.50
73594;BME280;64760;53.404;23.498;2023-05-31T05:11:15;100246.25;;;12.10;70.14
73594;BME280;64760;53.404;23.498;2023-05-31T05:13:42;100243.66;;;12.23;69.71
73594;BME280;64760;53.404;23.498;2023-05-31T05:16:09;100251.78;;;12.30;68.63
73594;BME280;64760;53.404;23.498;2023-05-31T05:18:36;100246.06;;;12.39;67.20
73594;BME280;64760;53.404;23.498;2023-05-31T05:21:03;100243.47;;;12.52;67.52
73594;BME280;64760;53.404;23.498;2023-05-31T05:23:31;100242.31;;;12.68;67.63
73594;BME280;64760;53.404;23.498;2023-05-31T05:25:59;100241.56;;;12.81;66.02
73594;BME280;64760;53.404;23.498;2023-05-31T05:28:27;100243.09;;;12.90;65.51
73594;BME280;64760;53.404;23.498;2023-05-31T05:30:55;100242.09;;;12.97;65.42
73594;BME280;64760;53.404;23.498;2023-05-31T05:33:22;100242.53;;;13.07;64.62
73594;BME280;64760;53.404;23.498;2023-05-31T05:35:50;100251.97;;;13.25;61.87
73594;BME280;64760;53.404;23.498;2023-05-31T05:38:16;100247.25;;;13.33;62.06
73594;BME280;64760;53.404;23.498;2023-05-31T05:40:42;100244.94;;;13.30;62.28
73594;BME280;64760;53.404;23.498;2023-05-31T05:43:08;100238.16;;;13.47;61.70
73594;BME280;64760;53.404;23.498;2023-05-31T05:45:46;100236.53;;;13.59;61.08
73594;BME280;64760;53.404;23.498;2023-05-31T05:48:12;100237.59;;;13.65;60.93
73594;BME280;64760;53.404;23.498;2023-05-31T05:50:40;100235.72;;;13.79;59.04
73594;BME280;64760;53.404;23.498;2023-05-31T05:53:07;100225.81;;;13.99;58.01
73594;BME280;64760;53.404;23.498;2023-05-31T05:55:34;100228.72;;;14.04;57.78
73594;BME280;64760;53.404;23.498;2023-05-31T05:58:01;100229.34;;;14.26;57.56
73594;BME280;64760;53.404;23.498;2023-05-31T06:01:03;100223.13;;;14.32;57.12
73594;BME280;64760;53.404;23.498;2023-05-31T06:03:33;100228.75;;;14.43;56.92
73594;BME280;64760;53.404;23.498;2023-05-31T06:06:02;100227.47;;;14.46;57.14
73594;BME280;64760;53.404;23.498;2023-05-31T06:08:28;100224.56;;;14.61;56.58
73594;BME280;64760;53.404;23.498;2023-05-31T06:10:55;100228.69;;;14.70;56.44
73594;BME280;64760;53.404;23.498;2023-05-31T06:13:21;100225.97;;;14.83;56.35
73594;BME280;64760;53.404;23.498;2023-05-31T06:15:48;100219.91;;;14.94;54.57
73594;BME280;64760;53.404;23.498;2023-05-31T06:18:14;100218.22;;;14.93;55.84
73594;BME280;64760;53.404;23.498;2023-05-31T06:20:41;100220.69;;;15.01;56.54
73594;BME280;64760;53.404;23.498;2023-05-31T06:23:08;100224.81;;;15.17;55.64
73594;BME280;64760;53.404;23.498;2023-05-31T06:25:34;100221.03;;;15.24;55.51
73594;BME280;64760;53.404;23.498;2023-05-31T06:28:01;100223.31;;;15.21;56.39
73594;BME280;64760;53.404;23.498;2023-05-31T06:30:28;100227.84;;;15.33;55.54
73594;BME280;64760;53.404;23.498;2023-05-31T06:32:55;100222.38;;;15.46;55.90
73594;BME280;64760;53.404;23.498;2023-05-31T06:35:24;100222.59;;;15.52;55.21
73594;BME280;64760;53.404;23.498;2023-05-31T06:37:51;100222.63;;;15.38;55.33
73594;BME280;64760;53.404;23.498;2023-05-31T06:40:18;100213.09;;;15.36;53.58
73594;BME280;64760;53.404;23.498;2023-05-31T06:42:44;100214.91;;;15.42;55.02
73594;BME280;64760;53.404;23.498;2023-05-31T06:45:26;100218.63;;;15.54;55.34
73594;BME280;64760;53.404;23.498;2023-05-31T06:47:53;100215.41;;;15.70;54.35
73594;BME280;64760;53.404;23.498;2023-05-31T06:50:23;100206.44;;;15.76;53.63
73594;BME280;64760;53.404;23.498;2023-05-31T06:53:27;100207.50;;;15.69;53.38
73594;BME280;64760;53.404;23.498;2023-05-31T06:56:02;100204.88;;;15.87;52.93
73594;BME280;64760;53.404;23.498;2023-05-31T06:58:29;100211.28;;;15.92;52.57
73594;BME280;64760;53.404;23.498;2023-05-31T07:00:58;100210.34;;;16.05;49.87
73594;BME280;64760;53.404;23.498;2023-05-31T07:03:24;100211.75;;;16.14;49.84
73594;BME280;64760;53.404;23.498;2023-05-31T07:05:52;100202.91;;;16.25;50.06
73594;BME280;64760;53.404;23.498;2023-05-31T07:08:19;100207.16;;;16.39;48.63
73594;BME280;64760;53.404;23.498;2023-05-31T07:11:06;100203.63;;;16.39;47.95
73594;BME280;64760;53.404;23.498;2023-05-31T07:13:32;100209.41;;;16.42;48.33
73594;BME280;64760;53.404;23.498;2023-05-31T07:15:59;100206.41;;;16.51;47.48
73594;BME280;64760;53.404;23.498;2023-05-31T07:18:25;100200.63;;;16.47;46.56
73594;BME280;64760;53.404;23.498;2023-05-31T07:20:55;100206.63;;;16.49;47.85
73594;BME280;64760;53.404;23.498;2023-05-31T07:23:23;100210.09;;;16.56;47.81
73594;BME280;64760;53.404;23.498;2023-05-31T07:25:52;100197.97;;;16.65;48.11
73594;BME280;64760;53.404;23.498;2023-05-31T07:28:18;100205.69;;;16.62;48.65
73594;BME280;64760;53.404;23.498;2023-05-31T07:30:45;100196.41;;;16.76;48.09
73594;BME280;64760;53.404;23.498;2023-05-31T07:33:11;100196.69;;;16.86;47.51
73594;BME280;64760;53.404;23.498;2023-05-31T07:35:37;100188.78;;;16.84;47.46
73594;BME280;64760;53.404;23.498;2023-05-31T07:38:03;100187.34;;;17.00;47.58
73594;BME280;64760;53.404;23.498;2023-05-31T07:40:29;100186.72;;;17.16;47.64
73594;BME280;64760;53.404;23.498;2023-05-31T07:42:56;100191.28;;;17.34;47.76
73594;BME280;64760;53.404;23.498;2023-05-31T07:45:22;100186.38;;;17.43;46.62
73594;BME280;64760;53.404;23.498;2023-05-31T07:47:48;100189.19;;;17.48;46.93
73594;BME280;64760;53.404;23.498;2023-05-31T07:50:16;100182.94;;;17.35;45.95
73594;BME280;64760;53.404;23.498;2023-05-31T07:52:43;100202.13;;;17.34;45.88
73594;BME280;64760;53.404;23.498;2023-05-31T07:55:12;100189.56;;;17.21;45.05
73594;BME280;64760;53.404;23.498;2023-05-31T07:57:39;100187.59;;;17.28;45.32
73594;BME280;64760;53.404;23.498;2023-05-31T08:00:06;100189.31;;;17.41;44.71
73594;BME280;64760;53.404;23.498;2023-05-31T08:02:38;100186.41;;;17.24;44.98
73594;BME280;64760;53.404;23.498;2023-05-31T08:05:04;100179.63;;;17.33;45.87
73594;BME280;64760;53.404;23.498;2023-05-31T08:07:31;100181.06;;;17.48;44.93
73594;BME280;64760;53.404;23.498;2023-05-31T08:09:58;100182.66;;;17.55;43.63
73594;BME280;64760;53.404;23.498;2023-05-31T08:12:24;100182.59;;;17.62;44.22
73594;BME280;64760;53.404;23.498;2023-05-31T08:14:50;100187.84;;;17.57;43.81
73594;BME280;64760;53.404;23.498;2023-05-31T08:17:16;100172.94;;;17.77;43.60
73594;BME280;64760;53.404;23.498;2023-05-31T08:19:43;100182.41;;;17.87;43.00
73594;BME280;64760;53.404;23.498;2023-05-31T08:22:09;100179.22;;;17.90;43.79
73594;BME280;64760;53.404;23.498;2023-05-31T08:24:36;100168.53;;;18.06;42.64
73594;BME280;64760;53.404;23.498;2023-05-31T08:27:03;100176.41;;;18.19;42.49
73594;BME280;64760;53.404;23.498;2023-05-31T08:29:29;100170.53;;;18.22;42.14
73594;BME280;64760;53.404;23.498;2023-05-31T08:31:56;100158.72;;;18.40;41.69
73594;BME280;64760;53.404;23.498;2023-05-31T08:34:22;100166.50;;;18.48;40.65
73594;BME280;64760;53.404;23.498;2023-05-31T08:36:48;100160.63;;;18.63;40.16
73594;BME280;64760;53.404;23.498;2023-05-31T08:39:15;100163.81;;;18.60;40.76
73594;BME280;64760;53.404;23.498;2023-05-31T08:41:53;100157.19;;;18.56;40.89
73594;BME280;64760;53.404;23.498;2023-05-31T08:44:24;100150.09;;;18.78;40.42
73594;BME280;64760;53.404;23.498;2023-05-31T08:46:51;100159.50;;;18.87;40.02
73594;BME280;64760;53.404;23.498;2023-05-31T08:49:18;100151.16;;;18.77;40.02
73594;BME280;64760;53.404;23.498;2023-05-31T08:51:45;100153.50;;;18.85;39.29
73594;BME280;64760;53.404;23.498;2023-05-31T08:54:13;100157.53;;;18.83;39.50
73594;BME280;64760;53.404;23.498;2023-05-31T08:56:39;100155.16;;;18.86;38.69
73594;BME280;64760;53.404;23.498;2023-05-31T08:59:10;100163.06;;;18.76;38.06
73594;BME280;64760;53.404;23.498;2023-05-31T09:01:38;100159.31;;;18.65;37.66
73594;BME280;64760;53.404;23.498;2023-05-31T09:04:05;100158.16;;;18.61;37.05
73594;BME280;64760;53.404;23.498;2023-05-31T09:06:34;100163.34;;;18.74;38.60
73594;BME280;64760;53.404;23.498;2023-05-31T09:09:00;100156.94;;;18.81;38.48
73594;BME280;64760;53.404;23.498;2023-05-31T09:11:27;100158.41;;;19.00;37.87
73594;BME280;64760;53.404;23.498;2023-05-31T09:13:54;100151.19;;;19.05;37.67
73594;BME280;64760;53.404;23.498;2023-05-31T09:16:22;100146.81;;;19.44;37.91
73594;BME280;64760;53.404;23.498;2023-05-31T09:18:59;100146.31;;;19.47;37.03
73594;BME280;64760;53.404;23.498;2023-05-31T09:21:26;100150.13;;;19.35;37.47
73594;BME280;64760;53.404;23.498;2023-05-31T09:26:20;100143.72;;;19.12;37.67
73594;BME280;64760;53.404;23.498;2023-05-31T09:28:51;100151.47;;;19.20;37.07
73594;BME280;64760;53.404;23.498;2023-05-31T09:31:17;100149.78;;;19.31;37.05
73594;BME280;64760;53.404;23.498;2023-05-31T09:33:46;100139.16;;;19.30;36.98
73594;BME280;64760;53.404;23.498;2023-05-31T09:36:14;100136.53;;;19.46;37.06
73594;BME280;64760;53.404;23.498;2023-05-31T09:39:02;100139.41;;;19.28;36.96
73594;BME280;64760;53.404;23.498;2023-05-31T09:41:32;100135.00;;;19.39;36.40
73594;BME280;64760;53.404;23.498;2023-05-31T09:43:59;100131.06;;;19.63;34.85
73594;BME280;64760;53.404;23.498;2023-05-31T09:46:26;100133.66;;;19.69;34.82
73594;BME280;64760;53.404;23.498;2023-05-31T09:49:03;100130.94;;;19.86;35.10
73594;BME280;64760;53.404;23.498;2023-05-31T09:51:30;100128.78;;;19.88;35.54
73594;BME280;64760;53.404;23.498;2023-05-31T09:54:01;100111.13;;;19.91;35.48
73594;BME280;64760;53.404;23.498;2023-05-31T09:56:36;100111.41;;;19.89;35.09
73594;BME280;64760;53.404;23.498;2023-05-31T09:59:04;100124.50;;;19.76;34.59
73594;BME280;64760;53.404;23.498;2023-05-31T10:01:34;100113.28;;;19.89;33.21
73594;BME280;64760;53.404;23.498;2023-05-31T10:04:02;100107.09;;;20.10;33.97
73594;BME280;64760;53.404;23.498;2023-05-31T10:06:30;100103.88;;;19.96;33.17
73594;BME280;64760;53.404;23.498;2023-05-31T10:09:04;100104.47;;;19.82;32.15
73594;BME280;64760;53.404;23.498;2023-05-31T10:11:41;100110.25;;;19.85;31.85
73594;BME280;64760;53.404;23.498;2023-05-31T10:14:10;100102.59;;;19.82;32.54
73594;BME280;64760;53.404;23.498;2023-05-31T10:16:45;100101.16;;;19.96;32.37
73594;BME280;64760;53.404;23.498;2023-05-31T10:19:20;100100.00;;;19.92;32.13
73594;BME280;64760;53.404;23.498;2023-05-31T10:21:50;100095.91;;;19.90;31.64
73594;BME280;64760;53.404;23.498;2023-05-31T10:24:21;100095.97;;;19.95;31.89
73594;BME280;64760;53.404;23.498;2023-05-31T10:29:56;100090.59;;;20.55;31.90
73594;BME280;64760;53.404;23.498;2023-05-31T10:32:40;100092.03;;;20.41;31.95
73594;BME280;64760;53.404;23.498;2023-05-31T10:35:10;100084.00;;;20.51;31.67
73594;BME280;64760;53.404;23.498;2023-05-31T10:37:38;100083.16;;;20.50;30.45
73594;BME280;64760;53.404;23.498;2023-05-31T10:40:21;100074.56;;;20.58;32.01
73594;BME280;64760;53.404;23.498;2023-05-31T10:43:11;100080.56;;;20.82;31.45
73594;BME280;64760;53.404;23.498;2023-05-31T10:45:52;100079.88;;;20.48;32.32
73594;BME280;64760;53.404;23.498;2023-05-31T10:48:25;100076.78;;;20.40;32.57
73594;BME280;64760;53.404;23.498;2023-05-31T10:50:59;100060.59;;;20.50;33.51
73594;BME280;64760;53.404;23.498;2023-05-31T10:53:36;100062.34;;;20.61;33.31
73594;BME280;64760;53.404;23.498;2023-05-31T10:56:07;100066.13;;;20.60;33.25
73594;BME280;64760;53.404;23.498;2023-05-31T10:58:43;100071.03;;;20.58;31.83
73594;BME280;64760;53.404;23.498;2023-05-31T11:01:13;100064.50;;;20.59;31.48
73594;BME280;64760;53.404;23.498;2023-05-31T11:03:47;100057.06;;;20.54;31.66
73594;BME280;64760;53.404;23.498;2023-05-31T11:06:15;100063.09;;;20.35;31.44
73594;BME280;64760;53.404;23.498;2023-05-31T11:08:57;100059.25;;;20.52;30.95
73594;BME280;64760;53.404;23.498;2023-05-31T11:14:01;100048.06;;;20.97;30.76
73594;BME280;64760;53.404;23.498;2023-05-31T11:16:34;100039.97;;;21.34;31.26
73594;BME280;64760;53.404;23.498;2023-05-31T11:19:20;100051.09;;;21.01;31.88
73594;BME280;64760;53.404;23.498;2023-05-31T11:21:54;100040.78;;;20.81;31.41
73594;BME280;64760;53.404;23.498;2023-05-31T11:27:05;100036.34;;;21.24;31.03
73594;BME280;64760;53.404;23.498;2023-05-31T11:32:15;100027.94;;;21.03;30.03
73594;BME280;64760;53.404;23.498;2023-05-31T11:37:26;100017.19;;;21.19;29.63
73594;BME280;64760;53.404;23.498;2023-05-31T11:39:54;100027.25;;;21.45;30.27
73594;BME280;64760;53.404;23.498;2023-05-31T11:42:21;100027.94;;;21.03;30.80
73594;BME280;64760;53.404;23.498;2023-05-31T11:44:49;100017.88;;;20.82;30.53
73594;BME280;64760;53.404;23.498;2023-05-31T11:47:19;100012.03;;;20.69;30.02
73594;BME280;64760;53.404;23.498;2023-05-31T11:49:46;100015.69;;;20.79;29.12
73594;BME280;64760;53.404;23.498;2023-05-31T11:52:17;100006.25;;;21.14;30.39
73594;BME280;64760;53.404;23.498;2023-05-31T11:54:46;100004.00;;;21.10;29.31
73594;BME280;64760;53.404;23.498;2023-05-31T11:57:16;100002.72;;;21.18;29.33
73594;BME280;64760;53.404;23.498;2023-05-31T11:59:43;100001.34;;;21.16;27.86
73594;BME280;64760;53.404;23.498;2023-05-31T12:02:11;100001.41;;;21.21;26.83
73594;BME280;64760;53.404;23.498;2023-05-31T12:04:42;100004.19;;;21.26;26.74
73594;BME280;64760;53.404;23.498;2023-05-31T12:07:12;99983.56;;;21.40;26.29
73594;BME280;64760;53.404;23.498;2023-05-31T12:09:38;99991.56;;;21.20;28.25
73594;BME280;64760;53.404;23.498;2023-05-31T12:12:05;99978.72;;;21.15;28.97
73594;BME280;64760;53.404;23.498;2023-05-31T12:14:32;99969.03;;;21.29;29.71
73594;BME280;64760;53.404;23.498;2023-05-31T12:17:03;99982.34;;;21.63;29.04
73594;BME280;64760;53.404;23.498;2023-05-31T12:19:30;99967.25;;;21.50;29.03
73594;BME280;64760;53.404;23.498;2023-05-31T12:21:57;99981.31;;;21.69;28.77
73594;BME280;64760;53.404;23.498;2023-05-31T12:24:24;99978.31;;;21.65;29.13
73594;BME280;64760;53.404;23.498;2023-05-31T12:26:51;99983.47;;;21.67;29.11
73594;BME280;64760;53.404;23.498;2023-05-31T12:29:18;99976.41;;;21.66;27.52
73594;BME280;64760;53.404;23.498;2023-05-31T12:31:44;99979.41;;;21.69;27.97
73594;BME280;64760;53.404;23.498;2023-05-31T12:34:12;99975.16;;;21.88;26.92
73594;BME280;64760;53.404;23.498;2023-05-31T12:36:43;99971.84;;;21.86;27.59
73594;BME280;64760;53.404;23.498;2023-05-31T12:39:12;99982.88;;;21.96;23.89
73594;BME280;64760;53.404;23.498;2023-05-31T12:41:43;99971.38;;;21.52;24.21
73594;BME280;64760;53.404;23.498;2023-05-31T12:44:17;99978.13;;;21.40;25.33
73594;BME280;64760;53.404;23.498;2023-05-31T12:46:50;99971.16;;;21.59;26.23
73594;BME280;64760;53.404;23.498;2023-05-31T12:49:22;99964.31;;;21.93;25.84
73594;BME280;64760;53.404;23.498;2023-05-31T12:52:09;99960.00;;;22.08;25.88
73594;BME280;64760;53.404;23.498;2023-05-31T12:54:39;99945.97;;;21.89;26.61
73594;BME280;64760;53.404;23.498;2023-05-31T12:57:07;99959.81;;;21.82;27.83
73594;BME280;64760;53.404;23.498;2023-05-31T12:59:36;99945.94;;;21.84;27.40
73594;BME280;64760;53.404;23.498;2023-05-31T13:02:04;99945.78;;;22.00;27.51
73594;BME280;64760;53.404;23.498;2023-05-31T13:04:31;99940.31;;;22.00;25.44
73594;BME280;64760;53.404;23.498;2023-05-31T13:06:59;99936.03;;;22.30;26.28
73594;BME280;64760;53.404;23.498;2023-05-31T13:09:27;99937.72;;;22.36;26.31
73594;BME280;64760;53.404;23.498;2023-05-31T13:11:53;99927.91;;;22.50;25.77
73594;BME280;64760;53.404;23.498;2023-05-31T13:14:20;99945.25;;;22.14;26.07
73594;BME280;64760;53.404;23.498;2023-05-31T13:16:49;99932.66;;;21.97;26.48